Terminal Aerodrome Forecast
Issued by NWS

Home | Current Version | Previous Version | Text Only | Print | Product List | Glossary On
Versions: 1 2 3 4 5 6 7 8 9 10 11 12 13 14 15 16 17 18 19 20
000
FTUS42 KJAX 282300
TAFCRG
TAF
KCRG 282338Z 2900/2924 09007KT P6SM FEW050
     FM290100 VRB03KT P6SM SKC
     FM291600 12009KT P6SM SCT040 SCT070
     FM292200 12008KT P6SM SCT030 SCT070 BKN250=

USA.gov is the U.S. government's official web portal to all federal, state and local government web resources and services.